createdAt,value
2022-07-30T00:00:49.636Z,25.55
2022-07-30T00:03:36.110Z,25.41
2022-07-30T00:06:22.267Z,25.51
2022-07-30T00:09:08.714Z,25.49
2022-07-30T00:11:55.156Z,25.51
2022-07-30T00:14:41.726Z,25.30
2022-07-30T00:17:28.012Z,25.50
2022-07-30T00:20:14.997Z,25.61
2022-07-30T00:23:04.930Z,25.34
2022-07-30T00:25:51.139Z,25.19
2022-07-30T00:28:37.066Z,25.28
2022-07-30T00:31:23.460Z,25.45
2022-07-30T00:34:09.905Z,25.09
2022-07-30T00:36:56.929Z,25.05
2022-07-30T00:39:43.169Z,24.88
2022-07-30T00:42:46.570Z,25.20
2022-07-30T00:45:34.432Z,25.20
2022-07-30T00:48:20.783Z,25.01
2022-07-30T00:51:07.059Z,24.63
2022-07-30T00:53:53.527Z,24.72
2022-07-30T00:56:39.930Z,24.83
2022-07-30T00:59:28.418Z,24.85
2022-07-30T01:02:14.809Z,24.95
2022-07-30T01:05:01.207Z,25.01
2022-07-30T01:07:47.572Z,24.81
2022-07-30T01:10:34.038Z,24.82
2022-07-30T01:13:20.372Z,25.01
2022-07-30T01:16:06.698Z,24.34
2022-07-30T01:19:12.533Z,24.84
2022-07-30T01:22:24.800Z,24.63
2022-07-30T01:25:36.858Z,24.72
2022-07-30T01:28:27.826Z,24.60
2022-07-30T01:31:14.258Z,24.79
2022-07-30T01:34:01.088Z,24.54
2022-07-30T01:36:47.576Z,24.75
2022-07-30T01:39:33.908Z,24.19
2022-07-30T01:42:20.949Z,24.26
2022-07-30T01:45:09.146Z,24.38
2022-07-30T01:47:58.658Z,24.32
2022-07-30T01:50:46.792Z,24.35
2022-07-30T01:53:37.214Z,24.39
2022-07-30T01:56:25.151Z,24.68
2022-07-30T01:59:12.471Z,24.52
2022-07-30T02:01:59.740Z,24.67
2022-07-30T02:04:47.251Z,24.84
2022-07-30T02:07:56.860Z,24.84
2022-07-30T02:10:52.486Z,24.26
2022-07-30T02:13:47.286Z,24.20
2022-07-30T02:16:37.584Z,24.20
2022-07-30T02:19:25.921Z,24.48
2022-07-30T02:22:20.577Z,24.79
2022-07-30T02:25:10.694Z,24.43
2022-07-30T02:28:02.687Z,24.45
2022-07-30T02:30:55.084Z,24.22
2022-07-30T02:33:48.647Z,24.35
2022-07-30T02:36:36.002Z,24.10
2022-07-30T02:39:22.998Z,24.31
2022-07-30T02:42:10.655Z,24.11
2022-07-30T02:44:58.066Z,24.16
2022-07-30T02:47:51.639Z,24.12
2022-07-30T02:50:39.449Z,24.03
2022-07-30T02:53:27.378Z,24.29
2022-07-30T02:56:16.025Z,23.76
2022-07-30T02:59:03.712Z,24.13
2022-07-30T03:01:50.968Z,24.22
2022-07-30T03:04:38.390Z,24.17
2022-07-30T03:07:25.405Z,23.28
2022-07-30T03:10:13.513Z,23.79
2022-07-30T03:13:00.959Z,24.07
2022-07-30T03:15:49.175Z,24.22
2022-07-30T03:18:37.001Z,24.22
2022-07-30T03:21:26.389Z,23.52
2022-07-30T03:24:14.108Z,23.88
2022-07-30T03:27:03.822Z,23.59
2022-07-30T03:29:52.403Z,23.56
2022-07-30T03:32:39.282Z,23.71
2022-07-30T03:35:31.388Z,23.56
2022-07-30T03:38:18.728Z,23.87
2022-07-30T03:41:05.875Z,23.55
2022-07-30T03:43:52.761Z,23.85
2022-07-30T03:46:39.078Z,23.17
2022-07-30T03:49:26.034Z,23.32
2022-07-30T03:52:12.615Z,23.40
2022-07-30T03:54:59.727Z,23.43
2022-07-30T03:57:49.313Z,23.48
2022-07-30T04:00:36.475Z,23.67
2022-07-30T04:03:31.017Z,23.85
2022-07-30T04:06:17.721Z,23.68
2022-07-30T04:09:04.436Z,23.26
2022-07-30T04:11:51.365Z,23.21
2022-07-30T04:14:42.570Z,23.42
2022-07-30T04:17:49.796Z,23.24
2022-07-30T04:20:41.361Z,23.26
2022-07-30T04:23:27.669Z,22.63
2022-07-30T04:26:14.683Z,22.69
2022-07-30T04:29:02.156Z,23.21
2022-07-30T04:31:48.773Z,23.25
2022-07-30T04:34:36.437Z,22.90
2022-07-30T04:37:26.797Z,23.08
2022-07-30T04:40:13.446Z,23.23
2022-07-30T04:43:00.009Z,23.20
2022-07-30T04:45:46.242Z,23.10
2022-07-30T04:48:32.578Z,23.52
2022-07-30T04:51:27.090Z,23.45
2022-07-30T04:54:15.502Z,23.07
2022-07-30T04:57:02.347Z,23.58
2022-07-30T04:59:49.133Z,23.11
2022-07-30T05:02:35.615Z,23.95
2022-07-30T05:05:24.250Z,23.71
2022-07-30T05:08:12.465Z,23.81
2022-07-30T05:10:59.153Z,23.38
2022-07-30T05:13:48.412Z,23.60
2022-07-30T05:16:36.011Z,23.76
2022-07-30T05:19:22.917Z,24.36
2022-07-30T05:22:09.789Z,24.23
2022-07-30T05:24:57.576Z,24.10
2022-07-30T05:27:44.262Z,24.06
2022-07-30T05:30:30.714Z,23.58
2022-07-30T05:33:17.655Z,24.03
2022-07-30T05:36:04.102Z,24.08
2022-07-30T05:38:51.377Z,24.06
2022-07-30T05:41:38.163Z,23.63
2022-07-30T05:44:25.105Z,24.02
2022-07-30T05:47:11.543Z,24.54
2022-07-30T05:50:01.604Z,24.32
2022-07-30T05:52:51.340Z,23.48
2022-07-30T05:55:38.553Z,24.09
2022-07-30T05:58:25.427Z,24.37
2022-07-30T06:01:12.325Z,23.89
2022-07-30T06:03:59.257Z,23.34
2022-07-30T06:06:53.880Z,23.67
2022-07-30T06:09:42.167Z,24.02
2022-07-30T06:12:29.774Z,24.29
2022-07-30T06:15:19.486Z,24.05
2022-07-30T06:18:11.606Z,24.46
2022-07-30T06:20:59.385Z,24.19
2022-07-30T06:23:45.596Z,24.76
2022-07-30T06:26:32.481Z,23.75
2022-07-30T06:29:18.863Z,24.64
2022-07-30T06:32:05.740Z,24.17
2022-07-30T06:34:59.714Z,23.90
2022-07-30T06:37:59.359Z,24.59
2022-07-30T06:40:57.129Z,25.09
2022-07-30T06:43:47.546Z,25.18
2022-07-30T06:46:34.407Z,25.65
2022-07-30T06:49:20.950Z,25.01
2022-07-30T06:52:07.996Z,25.64
2022-07-30T06:54:54.646Z,25.39
2022-07-30T06:57:42.586Z,25.29
2022-07-30T07:00:30.624Z,24.91
2022-07-30T07:03:18.550Z,25.34
2022-07-30T07:06:06.697Z,25.24
2022-07-30T07:08:52.997Z,25.68
2022-07-30T07:11:40.434Z,26.26
2022-07-30T07:14:27.286Z,26.43
2022-07-30T07:17:13.798Z,25.96
2022-07-30T07:20:02.880Z,26.28
2022-07-30T07:22:50.148Z,26.63
2022-07-30T07:25:36.547Z,27.01
2022-07-30T07:28:33.319Z,26.62
2022-07-30T07:32:05.023Z,26.84
2022-07-30T07:34:26.596Z,27.24
2022-07-30T07:37:13.087Z,26.23
2022-07-30T07:39:59.536Z,26.82
2022-07-30T07:42:52.187Z,26.85
2022-07-30T07:45:39.370Z,26.94
2022-07-30T07:48:25.662Z,25.48
2022-07-30T07:51:13.473Z,26.54
2022-07-30T07:54:19.980Z,27.01
2022-07-30T07:57:10.394Z,26.86
2022-07-30T07:59:59.470Z,26.54
2022-07-30T08:02:47.041Z,27.05
2022-07-30T08:05:55.878Z,26.88
2022-07-30T08:08:40.902Z,26.75
2022-07-30T08:11:29.139Z,26.60
2022-07-30T08:14:18.692Z,26.53
2022-07-30T08:17:08.096Z,26.14
2022-07-30T08:20:03.531Z,26.95
2022-07-30T08:22:50.066Z,26.58
2022-07-30T08:25:36.674Z,26.78
2022-07-30T08:28:35.399Z,26.68
2022-07-30T08:31:23.143Z,27.37
2022-07-30T08:34:09.527Z,26.91
2022-07-30T08:36:56.192Z,25.11
2022-07-30T08:39:42.886Z,24.70
2022-07-30T08:42:29.483Z,25.09
2022-07-30T08:45:17.526Z,25.08
2022-07-30T08:48:08.247Z,24.67
2022-07-30T08:50:55.513Z,24.19
2022-07-30T08:53:44.292Z,23.22
2022-07-30T08:56:32.628Z,23.33
2022-07-30T08:59:19.070Z,23.12
2022-07-30T09:02:08.922Z,23.53
2022-07-30T09:04:58.410Z,23.01
2022-07-30T09:07:44.805Z,22.89
2022-07-30T09:10:31.155Z,21.81
2022-07-30T09:13:35.686Z,21.89
2022-07-30T09:16:23.381Z,22.11
2022-07-30T09:19:17.945Z,21.82
2022-07-30T09:22:04.194Z,22.10
2022-07-30T09:24:50.924Z,21.46
2022-07-30T09:27:47.760Z,21.27
2022-07-30T09:30:54.576Z,21.11
2022-07-30T09:33:47.375Z,21.05
2022-07-30T09:36:35.913Z,21.21
2022-07-30T09:39:35.733Z,21.33
2022-07-30T09:42:26.037Z,21.07
2022-07-30T09:45:14.728Z,21.53
2022-07-30T09:48:01.807Z,21.24
2022-07-30T09:50:49.990Z,20.22
2022-07-30T09:53:36.990Z,19.92
2022-07-30T09:56:26.695Z,19.54
2022-07-30T09:59:35.094Z,20.19
2022-07-30T10:02:22.950Z,20.10
2022-07-30T10:05:22.005Z,20.94
2022-07-30T10:08:16.722Z,20.76
2022-07-30T10:11:09.716Z,21.49
2022-07-30T10:13:57.822Z,21.87
2022-07-30T10:16:44.267Z,22.36
2022-07-30T10:19:40.314Z,22.10
2022-07-30T10:22:34.769Z,20.86
2022-07-30T10:25:49.629Z,21.11
2022-07-30T10:28:45.714Z,21.49
2022-07-30T10:31:48.041Z,21.68
2022-07-30T10:34:36.165Z,21.66
2022-07-30T10:37:22.840Z,21.78
2022-07-30T10:40:18.578Z,22.17
2022-07-30T10:43:53.094Z,21.97
2022-07-30T10:46:58.544Z,22.39
2022-07-30T10:50:04.751Z,20.65
2022-07-30T10:52:54.985Z,21.60
2022-07-30T10:55:41.799Z,22.22
2022-07-30T10:58:28.019Z,20.41
2022-07-30T11:01:18.131Z,20.80
2022-07-30T11:04:20.859Z,21.41
2022-07-30T11:07:21.219Z,21.33
2022-07-30T11:10:09.679Z,20.32
2022-07-30T11:12:56.060Z,20.88
2022-07-30T11:15:57.711Z,20.53
2022-07-30T11:19:27.274Z,20.75
2022-07-30T11:22:31.455Z,20.97
2022-07-30T11:25:22.030Z,20.80
2022-07-30T11:28:34.136Z,21.20
2022-07-30T11:31:54.737Z,20.76
2022-07-30T11:34:40.967Z,21.15
2022-07-30T11:37:31.925Z,21.38
2022-07-30T11:40:26.147Z,22.22
2022-07-30T11:43:18.651Z,21.21
2022-07-30T11:46:10.222Z,21.90
2022-07-30T11:49:08.502Z,22.11
2022-07-30T11:51:54.966Z,22.07
2022-07-30T11:54:55.049Z,22.37
2022-07-30T11:57:42.181Z,22.26
2022-07-30T12:00:47.838Z,21.62
2022-07-30T12:03:34.300Z,22.17
2022-07-30T12:06:20.663Z,22.08
2022-07-30T12:09:07.366Z,22.44
2022-07-30T12:11:59.366Z,22.08
2022-07-30T12:14:47.271Z,21.71
2022-07-30T12:17:46.566Z,21.28
2022-07-30T12:20:33.930Z,21.94
2022-07-30T12:23:21.848Z,21.49
2022-07-30T12:26:08.819Z,21.50
2022-07-30T12:29:07.406Z,21.34
2022-07-30T12:31:53.536Z,21.68
2022-07-30T12:34:39.771Z,21.34
2022-07-30T12:37:26.149Z,21.59
2022-07-30T12:40:15.384Z,22.34
2022-07-30T12:43:01.714Z,23.05
2022-07-30T12:45:51.884Z,22.87
2022-07-30T12:48:54.793Z,23.05
2022-07-30T12:51:51.228Z,23.66
2022-07-30T12:54:37.489Z,23.75
2022-07-30T12:57:23.319Z,24.14
2022-07-30T13:00:09.910Z,22.93
2022-07-30T13:02:56.317Z,23.60
2022-07-30T13:05:47.259Z,23.37
2022-07-30T13:09:06.349Z,23.31
2022-07-30T13:11:52.839Z,22.11
2022-07-30T13:14:39.423Z,22.06
2022-07-30T13:17:25.883Z,22.51
2022-07-30T13:20:14.148Z,22.65
2022-07-30T13:23:02.115Z,22.37
2022-07-30T13:25:49.128Z,22.10
2022-07-30T13:28:36.680Z,21.87
2022-07-30T13:31:23.288Z,21.54
2022-07-30T13:34:10.256Z,21.78
2022-07-30T13:36:56.290Z,21.03
2022-07-30T13:39:42.618Z,21.66
2022-07-30T13:42:28.801Z,21.82
2022-07-30T13:45:15.137Z,21.50
2022-07-30T13:48:01.590Z,21.74
2022-07-30T13:50:48.093Z,22.05
2022-07-30T13:53:34.170Z,21.90
2022-07-30T13:56:20.655Z,21.51
2022-07-30T13:59:08.247Z,20.92
2022-07-30T14:01:56.485Z,20.94
2022-07-30T14:04:43.226Z,20.24
2022-07-30T14:07:29.523Z,20.73
2022-07-30T14:10:15.858Z,20.65
2022-07-30T14:13:02.155Z,20.98
2022-07-30T14:15:48.629Z,21.17
2022-07-30T14:18:34.980Z,21.79
2022-07-30T14:21:21.578Z,21.76
2022-07-30T14:24:08.020Z,21.85
2022-07-30T14:26:58.199Z,21.94
2022-07-30T14:29:45.016Z,22.12
2022-07-30T14:32:32.738Z,22.04
2022-07-30T14:35:19.123Z,22.15
2022-07-30T14:38:05.921Z,22.31
2022-07-30T14:40:52.098Z,22.40
2022-07-30T14:43:38.266Z,22.14
2022-07-30T14:46:24.653Z,21.81
2022-07-30T14:49:11.053Z,22.01
2022-07-30T14:52:01.967Z,21.82
2022-07-30T14:54:48.283Z,22.12
2022-07-30T14:57:34.485Z,21.78
2022-07-30T15:00:21.291Z,22.01
2022-07-30T15:03:11.470Z,22.17
2022-07-30T15:05:57.691Z,21.93
2022-07-30T15:08:46.026Z,22.05
2022-07-30T15:11:45.003Z,23.08
2022-07-30T15:14:40.194Z,23.18
2022-07-30T15:17:28.101Z,23.59
2022-07-30T15:20:14.672Z,23.44
2022-07-30T15:23:01.120Z,23.37
2022-07-30T15:25:48.843Z,22.98
2022-07-30T15:28:35.530Z,22.81
2022-07-30T15:31:21.959Z,23.20
2022-07-30T15:34:12.653Z,22.96
2022-07-30T15:36:58.919Z,22.24
2022-07-30T15:39:45.432Z,22.36
2022-07-30T15:42:32.187Z,23.23
2022-07-30T15:45:20.117Z,22.66
2022-07-30T15:48:06.816Z,23.40
2022-07-30T15:50:53.969Z,23.68
2022-07-30T15:53:40.113Z,23.39
2022-07-30T15:56:28.289Z,23.24
2022-07-30T15:59:14.420Z,23.21
2022-07-30T16:02:01.044Z,22.89
2022-07-30T16:04:48.343Z,23.55
2022-07-30T16:07:34.543Z,24.14
2022-07-30T16:10:20.713Z,24.20
2022-07-30T16:13:08.018Z,24.29
2022-07-30T16:15:54.620Z,24.57
2022-07-30T16:18:40.753Z,24.15
2022-07-30T16:21:27.237Z,24.90
2022-07-30T16:24:13.647Z,24.55
2022-07-30T16:26:59.837Z,23.75
2022-07-30T16:29:45.592Z,23.92
2022-07-30T16:32:32.398Z,23.46
2022-07-30T16:35:18.730Z,23.34
2022-07-30T16:38:05.131Z,23.60
2022-07-30T16:40:51.421Z,23.85
2022-07-30T16:43:38.179Z,23.49
2022-07-30T16:46:24.460Z,23.53
2022-07-30T16:49:10.722Z,23.53
2022-07-30T16:51:56.992Z,23.27
2022-07-30T16:54:43.598Z,23.57
2022-07-30T16:57:30.378Z,23.80
2022-07-30T17:00:18.229Z,24.09
2022-07-30T17:03:04.742Z,24.08
2022-07-30T17:05:51.238Z,23.84
2022-07-30T17:08:37.624Z,23.63
2022-07-30T17:11:46.476Z,23.37
2022-07-30T17:14:34.609Z,23.26
2022-07-30T17:17:21.045Z,23.19
2022-07-30T17:20:09.985Z,23.15
2022-07-30T17:22:56.739Z,23.32
2022-07-30T17:25:42.890Z,22.94
2022-07-30T17:28:29.129Z,22.59
2022-07-30T17:31:15.444Z,22.58
2022-07-30T17:34:01.637Z,22.02
2022-07-30T17:36:52.261Z,22.08
2022-07-30T17:40:03.989Z,22.52
2022-07-30T17:42:46.514Z,22.24
2022-07-30T17:45:34.408Z,22.41
2022-07-30T17:48:21.795Z,21.85
2022-07-30T17:51:08.469Z,21.88
2022-07-30T17:53:54.843Z,21.84
2022-07-30T17:56:41.389Z,21.60
2022-07-30T17:59:27.762Z,21.87
2022-07-30T18:02:14.267Z,22.15
2022-07-30T18:05:00.741Z,22.20
2022-07-30T18:07:47.086Z,22.11
2022-07-30T18:10:33.537Z,22.08
2022-07-30T18:13:26.762Z,21.70
2022-07-30T18:16:14.117Z,21.73
2022-07-30T18:19:00.347Z,21.76
2022-07-30T18:21:47.002Z,22.33
2022-07-30T18:24:33.185Z,21.72
2022-07-30T18:27:19.518Z,22.26
2022-07-30T18:30:06.548Z,21.82
2022-07-30T18:32:52.853Z,21.10
2022-07-30T18:35:39.122Z,21.52
2022-07-30T18:38:25.663Z,21.89
2022-07-30T18:41:11.983Z,21.51
2022-07-30T18:43:58.126Z,21.23
2022-07-30T18:46:44.585Z,21.32
2022-07-30T18:49:38.341Z,21.44
2022-07-30T18:52:24.758Z,21.82
2022-07-30T18:55:12.455Z,21.77
2022-07-30T18:57:58.534Z,22.50
2022-07-30T19:00:45.350Z,21.71
2022-07-30T19:03:32.123Z,21.90
2022-07-30T19:06:21.520Z,22.21
2022-07-30T19:09:16.840Z,21.78
2022-07-30T19:12:05.074Z,21.77
2022-07-30T19:14:53.084Z,21.74
2022-07-30T19:17:46.534Z,22.79
2022-07-30T19:20:33.196Z,21.66
2022-07-30T19:23:20.186Z,22.49
2022-07-30T19:26:06.277Z,21.92
2022-07-30T19:28:52.660Z,22.07
2022-07-30T19:31:41.644Z,22.08
2022-07-30T19:34:28.146Z,22.14
2022-07-30T19:37:14.539Z,20.95
2022-07-30T19:40:06.733Z,21.97
2022-07-30T19:43:09.467Z,22.35
2022-07-30T19:45:58.422Z,22.93
2022-07-30T19:48:45.801Z,21.85
2022-07-30T19:52:11.145Z,22.20
2022-07-30T19:54:38.862Z,22.27
2022-07-30T19:57:25.261Z,22.51
2022-07-30T20:00:31.630Z,22.23
2022-07-30T20:03:25.677Z,22.42
2022-07-30T20:06:18.442Z,22.40
2022-07-30T20:09:05.168Z,22.14
2022-07-30T20:12:01.587Z,22.58
2022-07-30T20:14:48.797Z,22.48
2022-07-30T20:17:35.215Z,23.10
2022-07-30T20:20:26.236Z,22.66
2022-07-30T20:23:12.574Z,23.00
2022-07-30T20:25:58.921Z,23.30
2022-07-30T20:28:52.381Z,23.14
2022-07-30T20:31:39.599Z,21.92
2022-07-30T20:34:30.780Z,22.17
2022-07-30T20:37:21.673Z,21.51
2022-07-30T20:40:09.288Z,21.44
2022-07-30T20:42:56.190Z,22.10
2022-07-30T20:45:43.755Z,22.27
2022-07-30T20:48:34.861Z,22.67
2022-07-30T20:51:21.310Z,21.96
2022-07-30T20:54:07.607Z,22.27
2022-07-30T20:56:54.039Z,22.20
2022-07-30T20:59:40.967Z,20.64
2022-07-30T21:02:30.205Z,20.58
2022-07-30T21:05:20.097Z,20.14
2022-07-30T21:08:06.414Z,20.47
2022-07-30T21:10:53.438Z,19.80
2022-07-30T21:13:41.497Z,19.62
2022-07-30T21:16:30.518Z,19.82
2022-07-30T21:19:17.701Z,19.84
2022-07-30T21:22:05.216Z,19.49
2022-07-30T21:24:53.021Z,19.74
2022-07-30T21:27:40.015Z,19.75
2022-07-30T21:30:26.899Z,19.73
2022-07-30T21:33:13.199Z,19.72
2022-07-30T21:36:00.135Z,19.65
2022-07-30T21:38:46.429Z,19.60
2022-07-30T21:41:40.240Z,19.66
2022-07-30T21:44:27.131Z,19.19
2022-07-30T21:47:13.592Z,19.73
2022-07-30T21:49:59.941Z,19.55
2022-07-30T21:52:46.288Z,19.57
2022-07-30T21:55:33.255Z,19.59
2022-07-30T21:58:26.207Z,19.03
2022-07-30T22:01:17.201Z,19.74
2022-07-30T22:04:09.075Z,19.62
2022-07-30T22:06:55.483Z,19.35
2022-07-30T22:09:46.914Z,19.17
2022-07-30T22:12:32.873Z,19.10
2022-07-30T22:15:21.140Z,18.83
2022-07-30T22:18:08.095Z,19.04
2022-07-30T22:20:54.705Z,18.69
2022-07-30T22:23:54.811Z,18.95
2022-07-30T22:26:45.345Z,18.82
2022-07-30T22:29:33.903Z,18.66
2022-07-30T22:32:20.967Z,18.73
2022-07-30T22:35:07.550Z,18.50
2022-07-30T22:37:54.085Z,18.65
2022-07-30T22:40:40.812Z,18.67
2022-07-30T22:43:38.099Z,18.50
2022-07-30T22:46:31.072Z,18.51
2022-07-30T22:49:24.065Z,18.70
2022-07-30T22:52:27.565Z,18.63
2022-07-30T22:55:15.525Z,18.83
2022-07-30T22:58:07.831Z,19.41
2022-07-30T23:00:55.710Z,18.60
2022-07-30T23:03:42.260Z,18.60
2022-07-30T23:06:30.180Z,18.29
2022-07-30T23:09:16.524Z,18.36
2022-07-30T23:12:03.504Z,18.35
2022-07-30T23:14:49.796Z,18.39
2022-07-30T23:17:38.511Z,18.49
2022-07-30T23:20:24.816Z,18.52
2022-07-30T23:23:11.560Z,18.47
2022-07-30T23:25:57.762Z,18.66
2022-07-30T23:28:44.147Z,18.46
2022-07-30T23:31:30.539Z,18.49
2022-07-30T23:34:16.856Z,18.39
2022-07-30T23:37:05.000Z,18.25
2022-07-30T23:39:51.442Z,18.38
2022-07-30T23:42:38.076Z,18.38
2022-07-30T23:45:25.272Z,18.37
2022-07-30T23:48:12.080Z,18.22
2022-07-30T23:50:58.909Z,18.63
2022-07-30T23:53:45.429Z,18.26
2022-07-30T23:56:32.406Z,18.23
2022-07-30T23:59:18.442Z,18.43
